TAF LFRO
METAR LFRO
LFRO 080230Z AUTO 21010KT 9999 FEW048/// SCT074/// BKN096/// ///TCU 05/03 Q0995=
LFRO 080200Z AUTO 25016KT 9000 -RA FEW015 SCT020 BKN026 05/03 Q0996=
LFRO 080130Z AUTO 25012KT 5000 RA BR SCT019/// BKN025/// BKN031/// ///TCU 04/03 Q0995=
LFRO 080100Z AUTO 26015KT 5000 RA BR FEW016 SCT022 BKN028 03/02 Q0995=
LFRO 080030Z AUTO 23015KT 9999 ///TCU 05/03 Q0995=
WC LFRO
WS LFRO
WV LFRO